Willow River, Canada
Current Conditions -  °F | °C
As of 12:00 AM on Friday 24 Oct 2014 (Local Time) from CYXS Reporting Station
NA  
Wind Chill: 25°   Ceiling: NA
Heat Index: 30°   Visibility: 9mi
Dew Point: 30°   Wind: 5mph
Humidity: 100%   Direction: 190°S
Pressure: 29.78"   Gusts: NA
Location:  54.07°N, 122.47°W
Report Text: CYXS 240700Z AUTO 19004KT 9SM M01/M01 A2978 RMK CLD MISG SLP110
Loading
Personal Weather Stations






























Interactive Weather Map
Tropical Storm Tracking
New forecast layout! Learn more

10-Day Weather Forecast

Advertisements
Track Severe Weather on mobile